sensor_id;sensor_type;location;lat;lon;timestamp;P1;P2;P0
78678;PMS5003;67994;59.334;13.528;2024-02-16T00:00:00;9.0;6.6;
78678;PMS5003;67994;59.334;13.528;2024-02-16T00:01:00;9.0;6.6;
78678;PMS5003;67994;59.334;13.528;2024-02-16T00:02:01;9.0;6.6;
78678;PMS5003;67994;59.334;13.528;2024-02-16T00:03:00;9.0;6.6;
78678;PMS5003;67994;59.334;13.528;2024-02-16T00:04:00;9.0;6.6;
78678;PMS5003;67994;59.334;13.528;2024-02-16T00:05:00;7.3;3.7;
78678;PMS5003;67994;59.334;13.528;2024-02-16T00:06:01;7.3;3.7;
78678;PMS5003;67994;59.334;13.528;2024-02-16T00:07:00;7.3;3.7;
78678;PMS5003;67994;59.334;13.528;2024-02-16T00:08:00;7.3;3.7;
78678;PMS5003;67994;59.334;13.528;2024-02-16T00:09:01;7.3;3.7;
78678;PMS5003;67994;59.334;13.528;2024-02-16T00:10:00;5.4;5.4;
78678;PMS5003;67994;59.334;13.528;2024-02-16T00:11:00;5.4;5.4;
78678;PMS5003;67994;59.334;13.528;2024-02-16T00:12:00;5.4;5.4;
78678;PMS5003;67994;59.334;13.528;2024-02-16T00:13:01;5.4;5.4;
78678;PMS5003;67994;59.334;13.528;2024-02-16T00:14:01;5.4;5.4;
78678;PMS5003;67994;59.334;13.528;2024-02-16T00:15:01;4.6;3.9;
78678;PMS5003;67994;59.334;13.528;2024-02-16T00:16:00;4.6;3.9;
78678;PMS5003;67994;59.334;13.528;2024-02-16T00:17:00;4.6;3.9;
78678;PMS5003;67994;59.334;13.528;2024-02-16T00:18:01;4.6;3.9;
78678;PMS5003;67994;59.334;13.528;2024-02-16T00:19:01;4.6;3.9;
78678;PMS5003;67994;59.334;13.528;2024-02-16T00:20:00;5.4;5.4;
78678;PMS5003;67994;59.334;13.528;2024-02-16T00:21:01;5.4;5.4;
78678;PMS5003;67994;59.334;13.528;2024-02-16T00:22:00;5.4;5.4;
78678;PMS5003;67994;59.334;13.528;2024-02-16T00:23:00;5.4;5.4;
78678;PMS5003;67994;59.334;13.528;2024-02-16T00:24:01;5.4;5.4;
78678;PMS5003;67994;59.334;13.528;2024-02-16T00:25:01;9.6;4.6;
78678;PMS5003;67994;59.334;13.528;2024-02-16T00:26:01;9.6;4.6;
78678;PMS5003;67994;59.334;13.528;2024-02-16T00:27:00;9.6;4.6;
78678;PMS5003;67994;59.334;13.528;2024-02-16T00:28:00;9.6;4.6;
78678;PMS5003;67994;59.334;13.528;2024-02-16T00:29:01;9.6;4.6;
78678;PMS5003;67994;59.334;13.528;2024-02-16T00:30:01;3.0;3.0;
78678;PMS5003;67994;59.334;13.528;2024-02-16T00:31:01;3.0;3.0;
78678;PMS5003;67994;59.334;13.528;2024-02-16T00:32:01;3.0;3.0;
78678;PMS5003;67994;59.334;13.528;2024-02-16T00:33:01;3.0;3.0;
78678;PMS5003;67994;59.334;13.528;2024-02-16T00:34:01;3.0;3.0;
78678;PMS5003;67994;59.334;13.528;2024-02-16T00:35:00;3.0;3.0;
78678;PMS5003;67994;59.334;13.528;2024-02-16T00:36:00;3.0;3.0;
78678;PMS5003;67994;59.334;13.528;2024-02-16T00:37:01;3.0;3.0;
78678;PMS5003;67994;59.334;13.528;2024-02-16T00:38:00;3.0;3.0;
78678;PMS5003;67994;59.334;13.528;2024-02-16T00:39:00;3.0;3.0;
78678;PMS5003;67994;59.334;13.528;2024-02-16T00:40:00;6.3;2.4;
78678;PMS5003;67994;59.334;13.528;2024-02-16T00:41:00;6.3;2.4;
78678;PMS5003;67994;59.334;13.528;2024-02-16T00:42:01;6.3;2.4;
78678;PMS5003;67994;59.334;13.528;2024-02-16T00:43:01;6.3;2.4;
78678;PMS5003;67994;59.334;13.528;2024-02-16T00:44:01;6.3;2.4;
78678;PMS5003;67994;59.334;13.528;2024-02-16T00:45:00;5.2;3.7;
78678;PMS5003;67994;59.334;13.528;2024-02-16T00:46:00;5.2;3.7;
78678;PMS5003;67994;59.334;13.528;2024-02-16T00:47:01;5.2;3.7;
78678;PMS5003;67994;59.334;13.528;2024-02-16T00:48:00;5.2;3.7;
78678;PMS5003;67994;59.334;13.528;2024-02-16T00:49:00;5.2;3.7;
78678;PMS5003;67994;59.334;13.528;2024-02-16T00:50:00;4.2;4.2;
78678;PMS5003;67994;59.334;13.528;2024-02-16T00:51:01;4.2;4.2;
78678;PMS5003;67994;59.334;13.528;2024-02-16T00:52:01;4.2;4.2;
78678;PMS5003;67994;59.334;13.528;2024-02-16T00:53:01;4.2;4.2;
78678;PMS5003;67994;59.334;13.528;2024-02-16T00:54:00;4.2;4.2;
78678;PMS5003;67994;59.334;13.528;2024-02-16T00:55:01;4.0;3.0;
78678;PMS5003;67994;59.334;13.528;2024-02-16T00:56:00;4.0;3.0;
78678;PMS5003;67994;59.334;13.528;2024-02-16T00:57:01;4.0;3.0;
78678;PMS5003;67994;59.334;13.528;2024-02-16T00:58:00;4.0;3.0;
78678;PMS5003;67994;59.334;13.528;2024-02-16T00:59:00;4.0;3.0;
78678;PMS5003;67994;59.334;13.528;2024-02-16T01:00:01;6.6;6.6;
78678;PMS5003;67994;59.334;13.528;2024-02-16T01:01:00;6.6;6.6;
78678;PMS5003;67994;59.334;13.528;2024-02-16T01:02:00;6.6;6.6;
78678;PMS5003;67994;59.334;13.528;2024-02-16T01:03:00;6.6;6.6;
78678;PMS5003;67994;59.334;13.528;2024-02-16T01:04:01;6.6;6.6;
78678;PMS5003;67994;59.334;13.528;2024-02-16T01:05:00;4.2;2.4;
78678;PMS5003;67994;59.334;13.528;2024-02-16T01:06:01;4.2;2.4;
78678;PMS5003;67994;59.334;13.528;2024-02-16T01:07:00;4.2;2.4;
78678;PMS5003;67994;59.334;13.528;2024-02-16T01:08:00;4.2;2.4;
78678;PMS5003;67994;59.334;13.528;2024-02-16T01:09:00;4.2;2.4;
78678;PMS5003;67994;59.334;13.528;2024-02-16T01:10:00;6.9;4.0;
78678;PMS5003;67994;59.334;13.528;2024-02-16T01:11:00;6.9;4.0;
78678;PMS5003;67994;59.334;13.528;2024-02-16T01:12:00;6.9;4.0;
78678;PMS5003;67994;59.334;13.528;2024-02-16T01:13:00;6.9;4.0;
78678;PMS5003;67994;59.334;13.528;2024-02-16T01:14:00;6.9;4.0;
78678;PMS5003;67994;59.334;13.528;2024-02-16T01:15:00;1.0;0.7;
78678;PMS5003;67994;59.334;13.528;2024-02-16T01:16:01;1.0;0.7;
78678;PMS5003;67994;59.334;13.528;2024-02-16T01:17:01;1.0;0.7;
78678;PMS5003;67994;59.334;13.528;2024-02-16T01:18:00;1.0;0.7;
78678;PMS5003;67994;59.334;13.528;2024-02-16T01:19:00;1.0;0.7;
78678;PMS5003;67994;59.334;13.528;2024-02-16T01:20:00;4.6;3.3;
78678;PMS5003;67994;59.334;13.528;2024-02-16T01:21:00;4.6;3.3;
78678;PMS5003;67994;59.334;13.528;2024-02-16T01:22:00;4.6;3.3;
78678;PMS5003;67994;59.334;13.528;2024-02-16T01:23:00;4.6;3.3;
78678;PMS5003;67994;59.334;13.528;2024-02-16T01:24:00;4.6;3.3;
78678;PMS5003;67994;59.334;13.528;2024-02-16T01:25:00;6.1;6.1;
78678;PMS5003;67994;59.334;13.528;2024-02-16T01:26:01;6.1;6.1;
78678;PMS5003;67994;59.334;13.528;2024-02-16T01:27:00;6.1;6.1;
78678;PMS5003;67994;59.334;13.528;2024-02-16T01:28:01;6.1;6.1;
78678;PMS5003;67994;59.334;13.528;2024-02-16T01:29:00;6.1;6.1;
78678;PMS5003;67994;59.334;13.528;2024-02-16T01:30:00;4.8;3.0;
78678;PMS5003;67994;59.334;13.528;2024-02-16T01:31:00;4.8;3.0;
78678;PMS5003;67994;59.334;13.528;2024-02-16T01:32:00;4.8;3.0;
78678;PMS5003;67994;59.334;13.528;2024-02-16T01:33:00;4.8;3.0;
78678;PMS5003;67994;59.334;13.528;2024-02-16T01:34:00;4.8;3.0;
78678;PMS5003;67994;59.334;13.528;2024-02-16T01:35:00;3.9;3.0;
78678;PMS5003;67994;59.334;13.528;2024-02-16T01:36:00;3.9;3.0;
78678;PMS5003;67994;59.334;13.528;2024-02-16T01:37:00;3.9;3.0;
78678;PMS5003;67994;59.334;13.528;2024-02-16T01:38:00;3.9;3.0;
78678;PMS5003;67994;59.334;13.528;2024-02-16T01:39:01;3.9;3.0;
78678;PMS5003;67994;59.334;13.528;2024-02-16T01:40:01;4.0;3.0;
78678;PMS5003;67994;59.334;13.528;2024-02-16T01:41:00;4.0;3.0;
78678;PMS5003;67994;59.334;13.528;2024-02-16T01:42:00;4.0;3.0;
78678;PMS5003;67994;59.334;13.528;2024-02-16T01:43:00;4.0;3.0;
78678;PMS5003;67994;59.334;13.528;2024-02-16T01:44:00;4.0;3.0;
78678;PMS5003;67994;59.334;13.528;2024-02-16T01:45:00;6.4;4.2;
78678;PMS5003;67994;59.334;13.528;2024-02-16T01:46:00;6.4;4.2;
78678;PMS5003;67994;59.334;13.528;2024-02-16T01:47:01;6.4;4.2;
78678;PMS5003;67994;59.334;13.528;2024-02-16T01:48:01;6.4;4.2;
78678;PMS5003;67994;59.334;13.528;2024-02-16T01:49:00;6.4;4.2;
78678;PMS5003;67994;59.334;13.528;2024-02-16T01:50:00;4.0;4.0;
78678;PMS5003;67994;59.334;13.528;2024-02-16T01:51:01;4.0;4.0;
78678;PMS5003;67994;59.334;13.528;2024-02-16T01:52:00;4.0;4.0;
78678;PMS5003;67994;59.334;13.528;2024-02-16T01:53:00;4.0;4.0;
78678;PMS5003;67994;59.334;13.528;2024-02-16T01:54:01;4.0;4.0;
78678;PMS5003;67994;59.334;13.528;2024-02-16T01:55:01;3.0;3.0;
78678;PMS5003;67994;59.334;13.528;2024-02-16T01:56:00;3.0;3.0;
78678;PMS5003;67994;59.334;13.528;2024-02-16T01:57:01;3.0;3.0;
78678;PMS5003;67994;59.334;13.528;2024-02-16T01:58:01;3.0;3.0;
78678;PMS5003;67994;59.334;13.528;2024-02-16T01:59:00;3.0;3.0;
78678;PMS5003;67994;59.334;13.528;2024-02-16T02:00:00;3.0;3.0;
78678;PMS5003;67994;59.334;13.528;2024-02-16T02:01:00;3.0;3.0;
78678;PMS5003;67994;59.334;13.528;2024-02-16T02:02:00;3.0;3.0;
78678;PMS5003;67994;59.334;13.528;2024-02-16T02:03:00;3.0;3.0;
78678;PMS5003;67994;59.334;13.528;2024-02-16T02:04:00;3.0;3.0;
78678;PMS5003;67994;59.334;13.528;2024-02-16T02:05:00;4.0;2.8;
78678;PMS5003;67994;59.334;13.528;2024-02-16T02:06:01;4.0;2.8;
78678;PMS5003;67994;59.334;13.528;2024-02-16T02:07:10;4.0;2.8;
78678;PMS5003;67994;59.334;13.528;2024-02-16T02:08:08;4.0;2.8;
78678;PMS5003;67994;59.334;13.528;2024-02-16T02:09:00;4.0;2.8;
78678;PMS5003;67994;59.334;13.528;2024-02-16T02:10:00;4.0;4.0;
78678;PMS5003;67994;59.334;13.528;2024-02-16T02:11:01;4.0;4.0;
78678;PMS5003;67994;59.334;13.528;2024-02-16T02:12:01;4.0;4.0;
78678;PMS5003;67994;59.334;13.528;2024-02-16T02:13:00;4.0;4.0;
78678;PMS5003;67994;59.334;13.528;2024-02-16T02:14:00;4.0;4.0;
78678;PMS5003;67994;59.334;13.528;2024-02-16T02:15:00;1.9;1.8;
78678;PMS5003;67994;59.334;13.528;2024-02-16T02:16:01;1.9;1.8;
78678;PMS5003;67994;59.334;13.528;2024-02-16T02:17:00;1.9;1.8;
78678;PMS5003;67994;59.334;13.528;2024-02-16T02:18:00;1.9;1.8;
78678;PMS5003;67994;59.334;13.528;2024-02-16T02:19:00;1.9;1.8;
78678;PMS5003;67994;59.334;13.528;2024-02-16T02:20:01;5.8;4.0;
78678;PMS5003;67994;59.334;13.528;2024-02-16T02:21:00;5.8;4.0;
78678;PMS5003;67994;59.334;13.528;2024-02-16T02:22:01;5.8;4.0;
78678;PMS5003;67994;59.334;13.528;2024-02-16T02:23:01;5.8;4.0;
78678;PMS5003;67994;59.334;13.528;2024-02-16T02:24:01;5.8;4.0;
78678;PMS5003;67994;59.334;13.528;2024-02-16T02:25:00;6.3;3.0;
78678;PMS5003;67994;59.334;13.528;2024-02-16T02:26:01;6.3;3.0;
78678;PMS5003;67994;59.334;13.528;2024-02-16T02:27:00;6.3;3.0;
78678;PMS5003;67994;59.334;13.528;2024-02-16T02:28:00;6.3;3.0;
78678;PMS5003;67994;59.334;13.528;2024-02-16T02:29:01;6.3;3.0;
78678;PMS5003;67994;59.334;13.528;2024-02-16T02:30:01;3.0;3.0;
78678;PMS5003;67994;59.334;13.528;2024-02-16T02:31:00;3.0;3.0;
78678;PMS5003;67994;59.334;13.528;2024-02-16T02:32:01;3.0;3.0;
78678;PMS5003;67994;59.334;13.528;2024-02-16T02:33:00;3.0;3.0;
78678;PMS5003;67994;59.334;13.528;2024-02-16T02:34:00;3.0;3.0;
78678;PMS5003;67994;59.334;13.528;2024-02-16T02:35:01;1.2;1.2;
78678;PMS5003;67994;59.334;13.528;2024-02-16T02:36:01;1.2;1.2;
78678;PMS5003;67994;59.334;13.528;2024-02-16T02:37:00;1.2;1.2;
78678;PMS5003;67994;59.334;13.528;2024-02-16T02:38:01;1.2;1.2;
78678;PMS5003;67994;59.334;13.528;2024-02-16T02:39:00;1.2;1.2;
78678;PMS5003;67994;59.334;13.528;2024-02-16T02:40:00;2.4;1.0;
78678;PMS5003;67994;59.334;13.528;2024-02-16T02:41:01;2.4;1.0;
78678;PMS5003;67994;59.334;13.528;2024-02-16T02:42:01;2.4;1.0;
78678;PMS5003;67994;59.334;13.528;2024-02-16T02:43:01;2.4;1.0;
78678;PMS5003;67994;59.334;13.528;2024-02-16T02:44:00;2.4;1.0;
78678;PMS5003;67994;59.334;13.528;2024-02-16T02:45:00;3.9;3.9;
78678;PMS5003;67994;59.334;13.528;2024-02-16T02:46:00;3.9;3.9;
78678;PMS5003;67994;59.334;13.528;2024-02-16T02:47:00;3.9;3.9;
78678;PMS5003;67994;59.334;13.528;2024-02-16T02:48:01;3.9;3.9;
78678;PMS5003;67994;59.334;13.528;2024-02-16T02:49:01;3.9;3.9;
78678;PMS5003;67994;59.334;13.528;2024-02-16T02:50:00;3.3;2.4;
78678;PMS5003;67994;59.334;13.528;2024-02-16T02:51:01;3.3;2.4;
78678;PMS5003;67994;59.334;13.528;2024-02-16T02:52:01;3.3;2.4;
78678;PMS5003;67994;59.334;13.528;2024-02-16T02:53:01;3.3;2.4;
78678;PMS5003;67994;59.334;13.528;2024-02-16T02:54:00;3.3;2.4;
78678;PMS5003;67994;59.334;13.528;2024-02-16T02:55:00;3.0;3.0;
78678;PMS5003;67994;59.334;13.528;2024-02-16T02:56:00;3.0;3.0;
78678;PMS5003;67994;59.334;13.528;2024-02-16T02:57:01;3.0;3.0;
78678;PMS5003;67994;59.334;13.528;2024-02-16T02:58:01;3.0;3.0;
78678;PMS5003;67994;59.334;13.528;2024-02-16T02:59:01;3.0;3.0;
78678;PMS5003;67994;59.334;13.528;2024-02-16T03:00:02;4.0;4.0;
78678;PMS5003;67994;59.334;13.528;2024-02-16T03:01:00;4.0;4.0;
78678;PMS5003;67994;59.334;13.528;2024-02-16T03:02:01;4.0;4.0;
78678;PMS5003;67994;59.334;13.528;2024-02-16T03:03:00;4.0;4.0;
78678;PMS5003;67994;59.334;13.528;2024-02-16T03:04:00;4.0;4.0;
78678;PMS5003;67994;59.334;13.528;2024-02-16T03:05:00;4.9;1.8;
78678;PMS5003;67994;59.334;13.528;2024-02-16T03:06:00;4.9;1.8;
78678;PMS5003;67994;59.334;13.528;2024-02-16T03:07:00;4.9;1.8;
78678;PMS5003;67994;59.334;13.528;2024-02-16T03:08:00;4.9;1.8;
78678;PMS5003;67994;59.334;13.528;2024-02-16T03:09:00;4.9;1.8;
78678;PMS5003;67994;59.334;13.528;2024-02-16T03:10:01;1.0;1.0;
78678;PMS5003;67994;59.334;13.528;2024-02-16T03:11:01;1.0;1.0;
78678;PMS5003;67994;59.334;13.528;2024-02-16T03:12:01;1.0;1.0;
78678;PMS5003;67994;59.334;13.528;2024-02-16T03:13:00;1.0;1.0;
78678;PMS5003;67994;59.334;13.528;2024-02-16T03:14:00;1.0;1.0;
78678;PMS5003;67994;59.334;13.528;2024-02-16T03:15:00;0.4;0.4;
78678;PMS5003;67994;59.334;13.528;2024-02-16T03:16:00;0.4;0.4;
78678;PMS5003;67994;59.334;13.528;2024-02-16T03:17:00;0.4;0.4;
78678;PMS5003;67994;59.334;13.528;2024-02-16T03:18:00;0.4;0.4;
78678;PMS5003;67994;59.334;13.528;2024-02-16T03:19:01;0.7;0.7;
78678;PMS5003;67994;59.334;13.528;2024-02-16T03:20:00;0.7;0.7;
78678;PMS5003;67994;59.334;13.528;2024-02-16T03:21:00;0.7;0.7;
78678;PMS5003;67994;59.334;13.528;2024-02-16T03:22:00;0.7;0.7;
78678;PMS5003;67994;59.334;13.528;2024-02-16T03:23:00;0.7;0.7;
78678;PMS5003;67994;59.334;13.528;2024-02-16T03:24:01;0.0;0.0;
78678;PMS5003;67994;59.334;13.528;2024-02-16T03:25:01;0.0;0.0;
78678;PMS5003;67994;59.334;13.528;2024-02-16T03:26:00;0.0;0.0;
78678;PMS5003;67994;59.334;13.528;2024-02-16T03:27:01;0.0;0.0;
78678;PMS5003;67994;59.334;13.528;2024-02-16T03:28:00;0.0;0.0;
78678;PMS5003;67994;59.334;13.528;2024-02-16T03:29:01;3.0;0.4;
78678;PMS5003;67994;59.334;13.528;2024-02-16T03:30:01;3.0;0.4;
78678;PMS5003;67994;59.334;13.528;2024-02-16T03:31:01;3.0;0.4;
78678;PMS5003;67994;59.334;13.528;2024-02-16T03:32:03;3.0;0.4;
78678;PMS5003;67994;59.334;13.528;2024-02-16T03:33:01;3.0;0.4;
78678;PMS5003;67994;59.334;13.528;2024-02-16T03:34:01;1.0;1.0;
78678;PMS5003;67994;59.334;13.528;2024-02-16T03:35:01;1.0;1.0;
78678;PMS5003;67994;59.334;13.528;2024-02-16T03:36:01;1.0;1.0;
78678;PMS5003;67994;59.334;13.528;2024-02-16T03:37:01;1.0;1.0;
78678;PMS5003;67994;59.334;13.528;2024-02-16T03:38:01;1.0;1.0;
78678;PMS5003;67994;59.334;13.528;2024-02-16T03:39:01;1.6;1.6;
78678;PMS5003;67994;59.334;13.528;2024-02-16T03:40:00;1.6;1.6;
78678;PMS5003;67994;59.334;13.528;2024-02-16T03:41:00;1.6;1.6;
78678;PMS5003;67994;59.334;13.528;2024-02-16T03:42:01;1.6;1.6;
78678;PMS5003;67994;59.334;13.528;2024-02-16T03:43:02;1.6;1.6;
78678;PMS5003;67994;59.334;13.528;2024-02-16T03:44:01;1.6;1.0;
78678;PMS5003;67994;59.334;13.528;2024-02-16T03:45:00;1.6;1.0;
78678;PMS5003;67994;59.334;13.528;2024-02-16T03:46:01;1.6;1.0;
78678;PMS5003;67994;59.334;13.528;2024-02-16T03:47:00;1.6;1.0;
78678;PMS5003;67994;59.334;13.528;2024-02-16T03:48:00;1.6;1.0;
78678;PMS5003;67994;59.334;13.528;2024-02-16T03:49:00;4.0;1.0;
78678;PMS5003;67994;59.334;13.528;2024-02-16T03:50:01;4.0;1.0;
78678;PMS5003;67994;59.334;13.528;2024-02-16T03:51:00;4.0;1.0;
78678;PMS5003;67994;59.334;13.528;2024-02-16T03:52:00;4.0;1.0;
78678;PMS5003;67994;59.334;13.528;2024-02-16T03:53:01;4.0;1.0;
78678;PMS5003;67994;59.334;13.528;2024-02-16T03:54:01;0.0;0.0;
78678;PMS5003;67994;59.334;13.528;2024-02-16T03:55:01;0.0;0.0;
78678;PMS5003;67994;59.334;13.528;2024-02-16T03:56:00;0.0;0.0;
78678;PMS5003;67994;59.334;13.528;2024-02-16T03:57:01;0.0;0.0;
78678;PMS5003;67994;59.334;13.528;2024-02-16T03:58:01;0.0;0.0;
78678;PMS5003;67994;59.334;13.528;2024-02-16T03:59:00;0.0;0.0;
78678;PMS5003;67994;59.334;13.528;2024-02-16T04:00:00;0.0;0.0;
78678;PMS5003;67994;59.334;13.528;2024-02-16T04:01:00;0.0;0.0;
78678;PMS5003;67994;59.334;13.528;2024-02-16T04:02:01;0.0;0.0;
78678;PMS5003;67994;59.334;13.528;2024-02-16T04:03:01;0.0;0.0;
78678;PMS5003;67994;59.334;13.528;2024-02-16T04:04:01;1.0;1.0;
78678;PMS5003;67994;59.334;13.528;2024-02-16T04:05:00;1.0;1.0;
78678;PMS5003;67994;59.334;13.528;2024-02-16T04:06:00;1.0;1.0;
78678;PMS5003;67994;59.334;13.528;2024-02-16T04:07:00;1.0;1.0;
78678;PMS5003;67994;59.334;13.528;2024-02-16T04:08:00;1.0;1.0;
78678;PMS5003;67994;59.334;13.528;2024-02-16T04:09:00;0.0;0.0;
78678;PMS5003;67994;59.334;13.528;2024-02-16T04:10:00;0.0;0.0;
78678;PMS5003;67994;59.334;13.528;2024-02-16T04:11:01;0.0;0.0;
78678;PMS5003;67994;59.334;13.528;2024-02-16T04:12:01;0.0;0.0;
78678;PMS5003;67994;59.334;13.528;2024-02-16T04:13:00;0.0;0.0;
78678;PMS5003;67994;59.334;13.528;2024-02-16T04:14:01;1.0;1.0;
78678;PMS5003;67994;59.334;13.528;2024-02-16T04:15:01;1.0;1.0;
78678;PMS5003;67994;59.334;13.528;2024-02-16T04:16:00;1.0;1.0;
78678;PMS5003;67994;59.334;13.528;2024-02-16T04:17:01;1.0;1.0;
78678;PMS5003;67994;59.334;13.528;2024-02-16T04:18:00;1.0;1.0;
78678;PMS5003;67994;59.334;13.528;2024-02-16T04:19:00;0.6;0.6;
78678;PMS5003;67994;59.334;13.528;2024-02-16T04:20:00;0.6;0.6;
78678;PMS5003;67994;59.334;13.528;2024-02-16T04:21:00;0.6;0.6;
78678;PMS5003;67994;59.334;13.528;2024-02-16T04:22:00;0.6;0.6;
78678;PMS5003;67994;59.334;13.528;2024-02-16T04:23:00;0.6;0.6;
78678;PMS5003;67994;59.334;13.528;2024-02-16T04:24:00;2.2;2.2;
78678;PMS5003;67994;59.334;13.528;2024-02-16T04:25:00;2.2;2.2;
78678;PMS5003;67994;59.334;13.528;2024-02-16T04:26:01;2.2;2.2;
78678;PMS5003;67994;59.334;13.528;2024-02-16T04:27:00;2.2;2.2;
78678;PMS5003;67994;59.334;13.528;2024-02-16T04:28:01;2.2;2.2;
78678;PMS5003;67994;59.334;13.528;2024-02-16T04:29:00;0.3;0.3;
78678;PMS5003;67994;59.334;13.528;2024-02-16T04:30:00;0.3;0.3;
78678;PMS5003;67994;59.334;13.528;2024-02-16T04:31:00;0.3;0.3;
78678;PMS5003;67994;59.334;13.528;2024-02-16T04:32:00;0.3;0.3;
78678;PMS5003;67994;59.334;13.528;2024-02-16T04:33:01;0.3;0.3;
78678;PMS5003;67994;59.334;13.528;2024-02-16T04:34:00;4.8;1.0;
78678;PMS5003;67994;59.334;13.528;2024-02-16T04:35:01;4.8;1.0;
78678;PMS5003;67994;59.334;13.528;2024-02-16T04:36:14;4.8;1.0;
78678;PMS5003;67994;59.334;13.528;2024-02-16T04:37:00;4.8;1.0;
78678;PMS5003;67994;59.334;13.528;2024-02-16T04:38:00;4.8;1.0;
78678;PMS5003;67994;59.334;13.528;2024-02-16T04:39:00;3.0;1.0;
78678;PMS5003;67994;59.334;13.528;2024-02-16T04:40:00;3.0;1.0;
78678;PMS5003;67994;59.334;13.528;2024-02-16T04:41:00;3.0;1.0;
78678;PMS5003;67994;59.334;13.528;2024-02-16T04:42:01;3.0;1.0;
78678;PMS5003;67994;59.334;13.528;2024-02-16T04:43:00;3.0;1.0;
78678;PMS5003;67994;59.334;13.528;2024-02-16T04:44:00;0.0;0.0;
78678;PMS5003;67994;59.334;13.528;2024-02-16T04:45:00;0.0;0.0;
78678;PMS5003;67994;59.334;13.528;2024-02-16T04:46:00;0.0;0.0;
78678;PMS5003;67994;59.334;13.528;2024-02-16T04:47:00;0.0;0.0;
78678;PMS5003;67994;59.334;13.528;2024-02-16T04:48:02;0.0;0.0;
78678;PMS5003;67994;59.334;13.528;2024-02-16T04:49:00;3.0;1.0;
78678;PMS5003;67994;59.334;13.528;2024-02-16T04:50:00;3.0;1.0;
78678;PMS5003;67994;59.334;13.528;2024-02-16T04:51:01;3.0;1.0;
78678;PMS5003;67994;59.334;13.528;2024-02-16T04:52:01;3.0;1.0;
78678;PMS5003;67994;59.334;13.528;2024-02-16T04:53:01;3.0;1.0;
78678;PMS5003;67994;59.334;13.528;2024-02-16T04:54:00;1.0;1.0;
78678;PMS5003;67994;59.334;13.528;2024-02-16T04:55:00;1.0;1.0;
78678;PMS5003;67994;59.334;13.528;2024-02-16T04:56:00;1.0;1.0;
78678;PMS5003;67994;59.334;13.528;2024-02-16T04:57:00;1.0;1.0;
78678;PMS5003;67994;59.334;13.528;2024-02-16T04:58:00;1.0;1.0;
78678;PMS5003;67994;59.334;13.528;2024-02-16T04:59:00;0.7;0.7;
78678;PMS5003;67994;59.334;13.528;2024-02-16T05:00:00;0.7;0.7;
78678;PMS5003;67994;59.334;13.528;2024-02-16T05:01:00;0.7;0.7;
78678;PMS5003;67994;59.334;13.528;2024-02-16T05:02:00;0.7;0.7;
78678;PMS5003;67994;59.334;13.528;2024-02-16T05:03:00;0.7;0.7;
78678;PMS5003;67994;59.334;13.528;2024-02-16T05:04:00;0.4;0.4;
78678;PMS5003;67994;59.334;13.528;2024-02-16T05:05:00;0.4;0.4;
78678;PMS5003;67994;59.334;13.528;2024-02-16T05:06:00;0.4;0.4;
78678;PMS5003;67994;59.334;13.528;2024-02-16T05:07:01;0.4;0.4;
78678;PMS5003;67994;59.334;13.528;2024-02-16T05:08:01;0.4;0.4;
78678;PMS5003;67994;59.334;13.528;2024-02-16T05:09:00;1.0;1.0;
78678;PMS5003;67994;59.334;13.528;2024-02-16T05:10:01;1.0;1.0;
78678;PMS5003;67994;59.334;13.528;2024-02-16T05:11:01;1.0;1.0;
78678;PMS5003;67994;59.334;13.528;2024-02-16T05:12:00;1.0;1.0;
78678;PMS5003;67994;59.334;13.528;2024-02-16T05:13:00;1.0;1.0;
78678;PMS5003;67994;59.334;13.528;2024-02-16T05:14:00;1.2;0.1;
78678;PMS5003;67994;59.334;13.528;2024-02-16T05:15:00;1.2;0.1;
78678;PMS5003;67994;59.334;13.528;2024-02-16T05:16:00;1.2;0.1;
78678;PMS5003;67994;59.334;13.528;2024-02-16T05:17:01;1.2;0.1;
78678;PMS5003;67994;59.334;13.528;2024-02-16T05:18:00;1.2;0.1;
78678;PMS5003;67994;59.334;13.528;2024-02-16T05:19:00;4.0;1.0;
78678;PMS5003;67994;59.334;13.528;2024-02-16T05:20:00;4.0;1.0;
78678;PMS5003;67994;59.334;13.528;2024-02-16T05:21:00;4.0;1.0;
78678;PMS5003;67994;59.334;13.528;2024-02-16T05:22:00;4.0;1.0;
78678;PMS5003;67994;59.334;13.528;2024-02-16T05:23:01;4.0;1.0;
78678;PMS5003;67994;59.334;13.528;2024-02-16T05:24:00;1.8;1.0;
78678;PMS5003;67994;59.334;13.528;2024-02-16T05:25:00;1.8;1.0;
78678;PMS5003;67994;59.334;13.528;2024-02-16T05:26:00;1.8;1.0;
78678;PMS5003;67994;59.334;13.528;2024-02-16T05:27:00;1.8;1.0;
78678;PMS5003;67994;59.334;13.528;2024-02-16T05:28:00;1.8;1.0;
78678;PMS5003;67994;59.334;13.528;2024-02-16T05:29:00;2.4;1.0;
78678;PMS5003;67994;59.334;13.528;2024-02-16T05:30:01;2.4;1.0;
78678;PMS5003;67994;59.334;13.528;2024-02-16T05:31:03;2.4;1.0;
78678;PMS5003;67994;59.334;13.528;2024-02-16T05:32:01;2.4;1.0;
78678;PMS5003;67994;59.334;13.528;2024-02-16T05:33:00;2.4;1.0;
78678;PMS5003;67994;59.334;13.528;2024-02-16T05:34:01;1.8;1.8;
78678;PMS5003;67994;59.334;13.528;2024-02-16T05:35:00;1.8;1.8;
78678;PMS5003;67994;59.334;13.528;2024-02-16T05:36:00;1.8;1.8;
78678;PMS5003;67994;59.334;13.528;2024-02-16T05:37:01;1.8;1.8;
78678;PMS5003;67994;59.334;13.528;2024-02-16T05:38:00;1.8;1.8;
78678;PMS5003;67994;59.334;13.528;2024-02-16T05:39:00;4.2;4.0;
78678;PMS5003;67994;59.334;13.528;2024-02-16T05:40:00;4.2;4.0;
78678;PMS5003;67994;59.334;13.528;2024-02-16T05:41:00;4.2;4.0;
78678;PMS5003;67994;59.334;13.528;2024-02-16T05:42:01;4.2;4.0;
78678;PMS5003;67994;59.334;13.528;2024-02-16T05:43:00;4.2;4.0;
78678;PMS5003;67994;59.334;13.528;2024-02-16T05:44:00;1.0;1.0;
78678;PMS5003;67994;59.334;13.528;2024-02-16T05:45:00;1.0;1.0;
78678;PMS5003;67994;59.334;13.528;2024-02-16T05:46:00;1.0;1.0;
78678;PMS5003;67994;59.334;13.528;2024-02-16T05:47:00;1.0;1.0;
78678;PMS5003;67994;59.334;13.528;2024-02-16T05:48:00;1.0;1.0;
78678;PMS5003;67994;59.334;13.528;2024-02-16T05:49:00;1.2;1.2;
78678;PMS5003;67994;59.334;13.528;2024-02-16T05:50:01;1.2;1.2;
78678;PMS5003;67994;59.334;13.528;2024-02-16T05:51:00;1.2;1.2;
78678;PMS5003;67994;59.334;13.528;2024-02-16T05:52:00;1.2;1.2;
78678;PMS5003;67994;59.334;13.528;2024-02-16T05:53:00;1.2;1.2;
78678;PMS5003;67994;59.334;13.528;2024-02-16T05:54:02;3.4;3.0;
78678;PMS5003;67994;59.334;13.528;2024-02-16T05:55:00;3.4;3.0;
78678;PMS5003;67994;59.334;13.528;2024-02-16T05:56:01;3.4;3.0;
78678;PMS5003;67994;59.334;13.528;2024-02-16T05:57:01;3.4;3.0;
78678;PMS5003;67994;59.334;13.528;2024-02-16T05:58:00;3.4;3.0;
78678;PMS5003;67994;59.334;13.528;2024-02-16T05:59:00;3.3;1.2;
78678;PMS5003;67994;59.334;13.528;2024-02-16T06:00:00;3.3;1.2;
78678;PMS5003;67994;59.334;13.528;2024-02-16T06:01:00;3.3;1.2;
78678;PMS5003;67994;59.334;13.528;2024-02-16T06:02:00;3.3;1.2;
78678;PMS5003;67994;59.334;13.528;2024-02-16T06:03:01;3.3;1.2;
78678;PMS5003;67994;59.334;13.528;2024-02-16T06:04:00;2.2;2.2;
78678;PMS5003;67994;59.334;13.528;2024-02-16T06:05:00;2.2;2.2;
78678;PMS5003;67994;59.334;13.528;2024-02-16T06:06:01;2.2;2.2;
78678;PMS5003;67994;59.334;13.528;2024-02-16T06:07:01;2.2;2.2;
78678;PMS5003;67994;59.334;13.528;2024-02-16T06:08:00;2.2;2.2;
78678;PMS5003;67994;59.334;13.528;2024-02-16T06:09:00;3.0;3.0;
78678;PMS5003;67994;59.334;13.528;2024-02-16T06:10:01;3.0;3.0;
78678;PMS5003;67994;59.334;13.528;2024-02-16T06:11:00;3.0;3.0;
78678;PMS5003;67994;59.334;13.528;2024-02-16T06:12:01;3.0;3.0;
78678;PMS5003;67994;59.334;13.528;2024-02-16T06:13:00;3.0;3.0;
78678;PMS5003;67994;59.334;13.528;2024-02-16T06:14:01;4.6;2.8;
78678;PMS5003;67994;59.334;13.528;2024-02-16T06:15:01;4.6;2.8;
78678;PMS5003;67994;59.334;13.528;2024-02-16T06:16:01;4.6;2.8;
78678;PMS5003;67994;59.334;13.528;2024-02-16T06:17:00;4.6;2.8;
78678;PMS5003;67994;59.334;13.528;2024-02-16T06:18:01;4.6;2.8;
78678;PMS5003;67994;59.334;13.528;2024-02-16T06:19:00;1.0;1.0;